sensor_id;sensor_type;location;lat;lon;timestamp;P1;durP1;ratioP1;P2;durP2;ratioP2
20671;SDS011;10495;50.922;4.760;2023-05-21T00:00:45;3.03;;;2.73;;
20671;SDS011;10495;50.922;4.760;2023-05-21T00:03:12;3.33;;;2.80;;
20671;SDS011;10495;50.922;4.760;2023-05-21T00:05:38;3.00;;;2.70;;
20671;SDS011;10495;50.922;4.760;2023-05-21T00:08:05;3.00;;;2.70;;
20671;SDS011;10495;50.922;4.760;2023-05-21T00:10:31;3.03;;;2.63;;
20671;SDS011;10495;50.922;4.760;2023-05-21T00:12:57;2.60;;;2.40;;
20671;SDS011;10495;50.922;4.760;2023-05-21T00:15:23;4.10;;;3.67;;
20671;SDS011;10495;50.922;4.760;2023-05-21T00:17:49;4.30;;;3.13;;
20671;SDS011;10495;50.922;4.760;2023-05-21T00:20:14;3.60;;;3.20;;
20671;SDS011;10495;50.922;4.760;2023-05-21T00:22:40;3.00;;;2.70;;
20671;SDS011;10495;50.922;4.760;2023-05-21T00:25:06;3.50;;;3.20;;
20671;SDS011;10495;50.922;4.760;2023-05-21T00:27:33;4.60;;;3.60;;
20671;SDS011;10495;50.922;4.760;2023-05-21T00:29:59;4.80;;;3.20;;
20671;SDS011;10495;50.922;4.760;2023-05-21T00:32:24;3.40;;;3.10;;
20671;SDS011;10495;50.922;4.760;2023-05-21T00:34:50;2.90;;;2.60;;
20671;SDS011;10495;50.922;4.760;2023-05-21T00:37:16;4.77;;;3.33;;
20671;SDS011;10495;50.922;4.760;2023-05-21T00:39:41;6.57;;;4.00;;
20671;SDS011;10495;50.922;4.760;2023-05-21T00:42:07;4.37;;;3.60;;
20671;SDS011;10495;50.922;4.760;2023-05-21T00:44:32;4.30;;;3.27;;
20671;SDS011;10495;50.922;4.760;2023-05-21T00:47:02;3.27;;;2.90;;
20671;SDS011;10495;50.922;4.760;2023-05-21T00:49:30;3.30;;;3.00;;
20671;SDS011;10495;50.922;4.760;2023-05-21T00:51:56;4.37;;;3.50;;
20671;SDS011;10495;50.922;4.760;2023-05-21T00:54:25;3.77;;;3.40;;
20671;SDS011;10495;50.922;4.760;2023-05-21T00:56:51;3.60;;;3.30;;
20671;SDS011;10495;50.922;4.760;2023-05-21T00:59:18;3.60;;;3.17;;
20671;SDS011;10495;50.922;4.760;2023-05-21T01:01:44;3.30;;;3.00;;
20671;SDS011;10495;50.922;4.760;2023-05-21T01:04:10;4.37;;;3.97;;
20671;SDS011;10495;50.922;4.760;2023-05-21T01:06:36;4.50;;;4.10;;
20671;SDS011;10495;50.922;4.760;2023-05-21T01:09:02;5.07;;;4.23;;
20671;SDS011;10495;50.922;4.760;2023-05-21T01:11:49;4.27;;;3.87;;
20671;SDS011;10495;50.922;4.760;2023-05-21T01:14:16;4.67;;;4.27;;
20671;SDS011;10495;50.922;4.760;2023-05-21T01:16:44;4.90;;;4.40;;
20671;SDS011;10495;50.922;4.760;2023-05-21T01:19:15;3.87;;;3.47;;
20671;SDS011;10495;50.922;4.760;2023-05-21T01:21:48;4.10;;;3.67;;
20671;SDS011;10495;50.922;4.760;2023-05-21T01:24:15;4.77;;;3.90;;
20671;SDS011;10495;50.922;4.760;2023-05-21T01:26:41;6.70;;;4.27;;
20671;SDS011;10495;50.922;4.760;2023-05-21T01:29:08;4.13;;;3.73;;
20671;SDS011;10495;50.922;4.760;2023-05-21T01:34:05;4.60;;;3.97;;
20671;SDS011;10495;50.922;4.760;2023-05-21T01:36:37;4.13;;;3.73;;
20671;SDS011;10495;50.922;4.760;2023-05-21T01:39:51;4.63;;;3.67;;
20671;SDS011;10495;50.922;4.760;2023-05-21T01:42:02;4.70;;;4.00;;
20671;SDS011;10495;50.922;4.760;2023-05-21T01:44:33;4.60;;;3.87;;
20671;SDS011;10495;50.922;4.760;2023-05-21T01:46:59;4.47;;;3.83;;
20671;SDS011;10495;50.922;4.760;2023-05-21T01:49:26;4.40;;;4.00;;
20671;SDS011;10495;50.922;4.760;2023-05-21T01:51:53;4.10;;;3.70;;
20671;SDS011;10495;50.922;4.760;2023-05-21T01:54:18;3.70;;;3.13;;
20671;SDS011;10495;50.922;4.760;2023-05-21T01:56:45;4.23;;;3.73;;
20671;SDS011;10495;50.922;4.760;2023-05-21T01:59:11;4.43;;;3.73;;
20671;SDS011;10495;50.922;4.760;2023-05-21T02:01:37;3.77;;;3.37;;
20671;SDS011;10495;50.922;4.760;2023-05-21T02:04:03;4.57;;;3.83;;
20671;SDS011;10495;50.922;4.760;2023-05-21T02:06:29;4.23;;;3.63;;
20671;SDS011;10495;50.922;4.760;2023-05-21T02:08:55;4.83;;;4.10;;
20671;SDS011;10495;50.922;4.760;2023-05-21T02:11:21;5.17;;;3.80;;
20671;SDS011;10495;50.922;4.760;2023-05-21T02:13:47;4.67;;;3.80;;
20671;SDS011;10495;50.922;4.760;2023-05-21T02:16:13;4.33;;;3.93;;
20671;SDS011;10495;50.922;4.760;2023-05-21T02:18:40;4.53;;;3.67;;
20671;SDS011;10495;50.922;4.760;2023-05-21T02:21:07;4.20;;;3.80;;
20671;SDS011;10495;50.922;4.760;2023-05-21T02:23:35;4.07;;;3.67;;
20671;SDS011;10495;50.922;4.760;2023-05-21T02:26:01;5.07;;;3.90;;
20671;SDS011;10495;50.922;4.760;2023-05-21T02:28:27;4.90;;;3.60;;
20671;SDS011;10495;50.922;4.760;2023-05-21T02:30:54;3.90;;;3.50;;
20671;SDS011;10495;50.922;4.760;2023-05-21T02:33:20;3.70;;;3.20;;
20671;SDS011;10495;50.922;4.760;2023-05-21T02:35:46;4.10;;;3.70;;
20671;SDS011;10495;50.922;4.760;2023-05-21T02:38:12;6.43;;;4.50;;
20671;SDS011;10495;50.922;4.760;2023-05-21T02:40:38;3.83;;;3.43;;
20671;SDS011;10495;50.922;4.760;2023-05-21T02:43:04;6.03;;;4.13;;
20671;SDS011;10495;50.922;4.760;2023-05-21T02:45:30;4.80;;;4.23;;
20671;SDS011;10495;50.922;4.760;2023-05-21T02:47:55;4.10;;;3.67;;
20671;SDS011;10495;50.922;4.760;2023-05-21T02:50:21;5.60;;;4.10;;
20671;SDS011;10495;50.922;4.760;2023-05-21T02:52:47;4.57;;;4.10;;
20671;SDS011;10495;50.922;4.760;2023-05-21T02:55:13;3.63;;;3.33;;
20671;SDS011;10495;50.922;4.760;2023-05-21T02:57:38;4.37;;;3.97;;
20671;SDS011;10495;50.922;4.760;2023-05-21T03:00:04;4.63;;;4.10;;
20671;SDS011;10495;50.922;4.760;2023-05-21T03:02:32;6.37;;;4.67;;
20671;SDS011;10495;50.922;4.760;2023-05-21T03:04:58;7.03;;;4.63;;
20671;SDS011;10495;50.922;4.760;2023-05-21T03:07:24;5.30;;;4.50;;
20671;SDS011;10495;50.922;4.760;2023-05-21T03:09:50;4.50;;;4.10;;
20671;SDS011;10495;50.922;4.760;2023-05-21T03:12:15;4.03;;;3.60;;
20671;SDS011;10495;50.922;4.760;2023-05-21T03:14:41;5.77;;;4.83;;
20671;SDS011;10495;50.922;4.760;2023-05-21T03:17:08;4.33;;;3.93;;
20671;SDS011;10495;50.922;4.760;2023-05-21T03:19:37;4.97;;;3.80;;
20671;SDS011;10495;50.922;4.760;2023-05-21T03:22:04;4.80;;;4.30;;
20671;SDS011;10495;50.922;4.760;2023-05-21T03:24:30;5.50;;;4.07;;
20671;SDS011;10495;50.922;4.760;2023-05-21T03:26:57;4.77;;;4.30;;
20671;SDS011;10495;50.922;4.760;2023-05-21T03:29:25;6.23;;;4.37;;
20671;SDS011;10495;50.922;4.760;2023-05-21T03:31:51;7.83;;;5.63;;
20671;SDS011;10495;50.922;4.760;2023-05-21T03:34:18;5.10;;;4.60;;
20671;SDS011;10495;50.922;4.760;2023-05-21T03:36:44;4.77;;;4.20;;
20671;SDS011;10495;50.922;4.760;2023-05-21T03:39:10;5.63;;;4.23;;
20671;SDS011;10495;50.922;4.760;2023-05-21T03:41:36;4.10;;;3.70;;
20671;SDS011;10495;50.922;4.760;2023-05-21T03:44:01;6.30;;;4.37;;
20671;SDS011;10495;50.922;4.760;2023-05-21T03:46:27;4.47;;;4.03;;
20671;SDS011;10495;50.922;4.760;2023-05-21T03:48:53;4.90;;;4.13;;
20671;SDS011;10495;50.922;4.760;2023-05-21T03:51:19;5.37;;;4.53;;
20671;SDS011;10495;50.922;4.760;2023-05-21T03:53:44;4.73;;;4.23;;
20671;SDS011;10495;50.922;4.760;2023-05-21T03:56:10;6.57;;;5.40;;
20671;SDS011;10495;50.922;4.760;2023-05-21T03:58:36;8.27;;;5.63;;
20671;SDS011;10495;50.922;4.760;2023-05-21T04:01:02;5.77;;;4.67;;
20671;SDS011;10495;50.922;4.760;2023-05-21T04:03:28;6.57;;;4.40;;
20671;SDS011;10495;50.922;4.760;2023-05-21T04:05:56;4.50;;;4.10;;
20671;SDS011;10495;50.922;4.760;2023-05-21T04:08:21;6.03;;;4.97;;
20671;SDS011;10495;50.922;4.760;2023-05-21T04:10:47;5.37;;;4.60;;
20671;SDS011;10495;50.922;4.760;2023-05-21T04:13:13;5.23;;;4.73;;
20671;SDS011;10495;50.922;4.760;2023-05-21T04:15:38;5.67;;;5.13;;
20671;SDS011;10495;50.922;4.760;2023-05-21T04:18:04;5.70;;;4.40;;
20671;SDS011;10495;50.922;4.760;2023-05-21T04:20:31;5.53;;;5.03;;
20671;SDS011;10495;50.922;4.760;2023-05-21T04:22:56;4.57;;;4.13;;
20671;SDS011;10495;50.922;4.760;2023-05-21T04:25:22;4.97;;;4.47;;
20671;SDS011;10495;50.922;4.760;2023-05-21T04:27:47;5.30;;;4.80;;
20671;SDS011;10495;50.922;4.760;2023-05-21T04:30:14;5.80;;;5.20;;
20671;SDS011;10495;50.922;4.760;2023-05-21T04:32:39;6.60;;;5.43;;
20671;SDS011;10495;50.922;4.760;2023-05-21T04:35:05;5.83;;;5.20;;
20671;SDS011;10495;50.922;4.760;2023-05-21T04:37:31;6.27;;;5.67;;
20671;SDS011;10495;50.922;4.760;2023-05-21T04:39:59;5.83;;;5.23;;
20671;SDS011;10495;50.922;4.760;2023-05-21T04:42:25;5.43;;;4.80;;
20671;SDS011;10495;50.922;4.760;2023-05-21T04:44:51;6.13;;;4.20;;
20671;SDS011;10495;50.922;4.760;2023-05-21T04:47:19;5.07;;;4.67;;
20671;SDS011;10495;50.922;4.760;2023-05-21T04:49:45;5.53;;;4.63;;
20671;SDS011;10495;50.922;4.760;2023-05-21T04:52:11;6.43;;;5.70;;
20671;SDS011;10495;50.922;4.760;2023-05-21T04:54:36;5.43;;;4.93;;
20671;SDS011;10495;50.922;4.760;2023-05-21T04:57:03;5.80;;;5.20;;
20671;SDS011;10495;50.922;4.760;2023-05-21T04:59:29;6.37;;;5.53;;
20671;SDS011;10495;50.922;4.760;2023-05-21T05:01:55;7.40;;;5.20;;
20671;SDS011;10495;50.922;4.760;2023-05-21T05:04:21;5.80;;;4.73;;
20671;SDS011;10495;50.922;4.760;2023-05-21T05:06:47;5.30;;;4.80;;
20671;SDS011;10495;50.922;4.760;2023-05-21T05:09:12;6.70;;;6.00;;
20671;SDS011;10495;50.922;4.760;2023-05-21T05:11:38;7.07;;;5.43;;
20671;SDS011;10495;50.922;4.760;2023-05-21T05:14:04;4.97;;;4.53;;
20671;SDS011;10495;50.922;4.760;2023-05-21T05:16:31;5.40;;;4.80;;
20671;SDS011;10495;50.922;4.760;2023-05-21T05:18:58;6.73;;;5.40;;
20671;SDS011;10495;50.922;4.760;2023-05-21T05:21:23;6.37;;;5.77;;
20671;SDS011;10495;50.922;4.760;2023-05-21T05:23:49;6.23;;;5.17;;
20671;SDS011;10495;50.922;4.760;2023-05-21T05:26:15;6.43;;;5.77;;
20671;SDS011;10495;50.922;4.760;2023-05-21T05:28:40;6.60;;;5.77;;
20671;SDS011;10495;50.922;4.760;2023-05-21T05:31:06;8.27;;;6.83;;
20671;SDS011;10495;50.922;4.760;2023-05-21T05:33:32;7.10;;;6.40;;
20671;SDS011;10495;50.922;4.760;2023-05-21T05:35:58;7.60;;;6.50;;
20671;SDS011;10495;50.922;4.760;2023-05-21T05:38:24;6.60;;;5.97;;
20671;SDS011;10495;50.922;4.760;2023-05-21T05:40:50;9.53;;;6.40;;
20671;SDS011;10495;50.922;4.760;2023-05-21T05:43:16;11.47;;;7.73;;
20671;SDS011;10495;50.922;4.760;2023-05-21T05:45:41;8.23;;;7.10;;
20671;SDS011;10495;50.922;4.760;2023-05-21T05:48:07;9.33;;;7.80;;
20671;SDS011;10495;50.922;4.760;2023-05-21T05:50:33;10.63;;;6.07;;
20671;SDS011;10495;50.922;4.760;2023-05-21T05:52:58;8.17;;;7.37;;
20671;SDS011;10495;50.922;4.760;2023-05-21T05:55:24;7.80;;;7.00;;
20671;SDS011;10495;50.922;4.760;2023-05-21T05:57:50;6.77;;;6.00;;
20671;SDS011;10495;50.922;4.760;2023-05-21T06:00:16;8.50;;;7.60;;
20671;SDS011;10495;50.922;4.760;2023-05-21T06:02:42;8.03;;;7.03;;
20671;SDS011;10495;50.922;4.760;2023-05-21T06:05:08;8.60;;;7.80;;
20671;SDS011;10495;50.922;4.760;2023-05-21T06:07:35;10.03;;;7.13;;
20671;SDS011;10495;50.922;4.760;2023-05-21T06:10:03;8.80;;;6.87;;
20671;SDS011;10495;50.922;4.760;2023-05-21T06:12:29;9.37;;;7.93;;
20671;SDS011;10495;50.922;4.760;2023-05-21T06:14:55;7.30;;;6.20;;
20671;SDS011;10495;50.922;4.760;2023-05-21T06:17:21;7.63;;;6.77;;
20671;SDS011;10495;50.922;4.760;2023-05-21T06:19:46;8.90;;;8.00;;
20671;SDS011;10495;50.922;4.760;2023-05-21T06:22:12;8.67;;;7.77;;
20671;SDS011;10495;50.922;4.760;2023-05-21T06:24:37;7.63;;;6.87;;
20671;SDS011;10495;50.922;4.760;2023-05-21T06:27:03;8.00;;;7.23;;
20671;SDS011;10495;50.922;4.760;2023-05-21T06:29:29;10.30;;;7.47;;
20671;SDS011;10495;50.922;4.760;2023-05-21T06:31:54;8.77;;;6.70;;
20671;SDS011;10495;50.922;4.760;2023-05-21T06:34:20;8.77;;;7.40;;
20671;SDS011;10495;50.922;4.760;2023-05-21T06:36:46;9.57;;;8.03;;
20671;SDS011;10495;50.922;4.760;2023-05-21T06:39:12;9.70;;;7.87;;
20671;SDS011;10495;50.922;4.760;2023-05-21T06:41:38;9.53;;;6.83;;
20671;SDS011;10495;50.922;4.760;2023-05-21T06:44:03;8.67;;;7.37;;
20671;SDS011;10495;50.922;4.760;2023-05-21T06:46:30;10.07;;;7.63;;
20671;SDS011;10495;50.922;4.760;2023-05-21T06:48:56;8.63;;;6.53;;
20671;SDS011;10495;50.922;4.760;2023-05-21T06:51:21;8.23;;;7.33;;
20671;SDS011;10495;50.922;4.760;2023-05-21T06:53:47;7.70;;;6.53;;
20671;SDS011;10495;50.922;4.760;2023-05-21T06:56:13;7.37;;;6.63;;
20671;SDS011;10495;50.922;4.760;2023-05-21T06:58:38;8.30;;;7.40;;
20671;SDS011;10495;50.922;4.760;2023-05-21T07:01:04;9.73;;;7.90;;
20671;SDS011;10495;50.922;4.760;2023-05-21T07:03:30;8.40;;;7.60;;
20671;SDS011;10495;50.922;4.760;2023-05-21T07:05:56;11.67;;;7.57;;
20671;SDS011;10495;50.922;4.760;2023-05-21T07:08:22;14.20;;;7.50;;
20671;SDS011;10495;50.922;4.760;2023-05-21T07:10:48;7.73;;;6.80;;
20671;SDS011;10495;50.922;4.760;2023-05-21T07:13:14;9.57;;;6.60;;
20671;SDS011;10495;50.922;4.760;2023-05-21T07:15:40;8.77;;;6.50;;
20671;SDS011;10495;50.922;4.760;2023-05-21T07:18:05;8.70;;;7.80;;
20671;SDS011;10495;50.922;4.760;2023-05-21T07:20:31;9.50;;;7.50;;
20671;SDS011;10495;50.922;4.760;2023-05-21T07:22:57;11.63;;;8.43;;
20671;SDS011;10495;50.922;4.760;2023-05-21T07:25:22;8.03;;;7.20;;
20671;SDS011;10495;50.922;4.760;2023-05-21T07:27:48;8.93;;;7.33;;
20671;SDS011;10495;50.922;4.760;2023-05-21T07:30:14;9.20;;;7.73;;
20671;SDS011;10495;50.922;4.760;2023-05-21T07:32:39;8.68;;;7.10;;
20671;SDS011;10495;50.922;4.760;2023-05-21T07:35:06;8.40;;;6.67;;
20671;SDS011;10495;50.922;4.760;2023-05-21T07:37:32;7.80;;;6.77;;
20671;SDS011;10495;50.922;4.760;2023-05-21T07:39:57;8.27;;;6.73;;
20671;SDS011;10495;50.922;4.760;2023-05-21T07:42:23;10.50;;;6.70;;
20671;SDS011;10495;50.922;4.760;2023-05-21T07:44:49;8.63;;;7.30;;
20671;SDS011;10495;50.922;4.760;2023-05-21T07:47:15;7.35;;;6.20;;
20671;SDS011;10495;50.922;4.760;2023-05-21T07:49:41;10.32;;;6.88;;
20671;SDS011;10495;50.922;4.760;2023-05-21T07:52:06;9.68;;;6.75;;
20671;SDS011;10495;50.922;4.760;2023-05-21T07:54:32;6.75;;;6.05;;
20671;SDS011;10495;50.922;4.760;2023-05-21T07:56:57;8.65;;;7.25;;
20671;SDS011;10495;50.922;4.760;2023-05-21T07:59:23;8.57;;;7.45;;
20671;SDS011;10495;50.922;4.760;2023-05-21T08:01:49;8.52;;;6.65;;
20671;SDS011;10495;50.922;4.760;2023-05-21T08:04:15;8.45;;;6.63;;
20671;SDS011;10495;50.922;4.760;2023-05-21T08:06:41;10.95;;;7.32;;
20671;SDS011;10495;50.922;4.760;2023-05-21T08:09:06;8.70;;;6.78;;
20671;SDS011;10495;50.922;4.760;2023-05-21T08:11:32;8.05;;;7.28;;
20671;SDS011;10495;50.922;4.760;2023-05-21T08:13:58;12.90;;;7.60;;
20671;SDS011;10495;50.922;4.760;2023-05-21T08:16:24;10.02;;;8.23;;
20671;SDS011;10495;50.922;4.760;2023-05-21T08:18:50;8.60;;;7.70;;
20671;SDS011;10495;50.922;4.760;2023-05-21T08:21:16;8.55;;;7.65;;
20671;SDS011;10495;50.922;4.760;2023-05-21T08:23:42;10.50;;;6.93;;
20671;SDS011;10495;50.922;4.760;2023-05-21T08:26:08;8.07;;;6.85;;
20671;SDS011;10495;50.922;4.760;2023-05-21T08:28:36;8.65;;;7.25;;
20671;SDS011;10495;50.922;4.760;2023-05-21T08:31:02;9.50;;;7.35;;
20671;SDS011;10495;50.922;4.760;2023-05-21T08:33:28;7.85;;;6.40;;
20671;SDS011;10495;50.922;4.760;2023-05-21T08:35:53;9.23;;;7.45;;
20671;SDS011;10495;50.922;4.760;2023-05-21T08:38:19;9.35;;;7.70;;
20671;SDS011;10495;50.922;4.760;2023-05-21T08:40:45;9.90;;;8.40;;
20671;SDS011;10495;50.922;4.760;2023-05-21T08:43:14;9.77;;;7.47;;
20671;SDS011;10495;50.922;4.760;2023-05-21T08:45:41;7.93;;;7.13;;
20671;SDS011;10495;50.922;4.760;2023-05-21T08:48:09;8.98;;;7.03;;
20671;SDS011;10495;50.922;4.760;2023-05-21T08:50:38;7.10;;;6.40;;
20671;SDS011;10495;50.922;4.760;2023-05-21T08:53:05;9.88;;;7.30;;
20671;SDS011;10495;50.922;4.760;2023-05-21T08:55:30;10.73;;;8.55;;
20671;SDS011;10495;50.922;4.760;2023-05-21T08:57:57;8.10;;;7.30;;
20671;SDS011;10495;50.922;4.760;2023-05-21T09:00:23;9.88;;;7.95;;
20671;SDS011;10495;50.922;4.760;2023-05-21T09:02:49;11.38;;;8.05;;
20671;SDS011;10495;50.922;4.760;2023-05-21T09:05:15;10.32;;;8.45;;
20671;SDS011;10495;50.922;4.760;2023-05-21T09:07:49;8.10;;;7.10;;
20671;SDS011;10495;50.922;4.760;2023-05-21T09:10:25;13.50;;;7.45;;
20671;SDS011;10495;50.922;4.760;2023-05-21T09:12:59;10.13;;;8.02;;
20671;SDS011;10495;50.922;4.760;2023-05-21T09:15:25;10.57;;;7.85;;
20671;SDS011;10495;50.922;4.760;2023-05-21T09:17:51;9.35;;;7.90;;
20671;SDS011;10495;50.922;4.760;2023-05-21T09:20:17;8.90;;;7.75;;
20671;SDS011;10495;50.922;4.760;2023-05-21T09:22:49;9.73;;;8.73;;
20671;SDS011;10495;50.922;4.760;2023-05-21T09:25:25;9.45;;;8.15;;
20671;SDS011;10495;50.922;4.760;2023-05-21T09:28:00;9.60;;;8.48;;
20671;SDS011;10495;50.922;4.760;2023-05-21T09:30:26;10.75;;;8.50;;
20671;SDS011;10495;50.922;4.760;2023-05-21T09:32:53;9.23;;;7.97;;
20671;SDS011;10495;50.922;4.760;2023-05-21T09:35:23;9.40;;;8.05;;
20671;SDS011;10495;50.922;4.760;2023-05-21T09:37:50;9.48;;;8.43;;
20671;SDS011;10495;50.922;4.760;2023-05-21T09:40:18;10.77;;;9.45;;
20671;SDS011;10495;50.922;4.760;2023-05-21T09:42:51;8.68;;;7.75;;
20671;SDS011;10495;50.922;4.760;2023-05-21T09:45:19;8.57;;;7.72;;
20671;SDS011;10495;50.922;4.760;2023-05-21T09:47:45;12.07;;;9.00;;
20671;SDS011;10495;50.922;4.760;2023-05-21T09:50:12;8.95;;;8.05;;
20671;SDS011;10495;50.922;4.760;2023-05-21T09:52:41;9.90;;;8.43;;
20671;SDS011;10495;50.922;4.760;2023-05-21T09:55:11;12.38;;;9.10;;
20671;SDS011;10495;50.922;4.760;2023-05-21T09:57:43;10.07;;;8.60;;
20671;SDS011;10495;50.922;4.760;2023-05-21T10:00:23;11.52;;;10.05;;
20671;SDS011;10495;50.922;4.760;2023-05-21T10:02:55;11.90;;;8.60;;
20671;SDS011;10495;50.922;4.760;2023-05-21T10:05:24;9.95;;;8.15;;
20671;SDS011;10495;50.922;4.760;2023-05-21T10:07:52;10.55;;;9.45;;
20671;SDS011;10495;50.922;4.760;2023-05-21T10:10:26;13.00;;;8.38;;
20671;SDS011;10495;50.922;4.760;2023-05-21T10:12:58;9.93;;;8.88;;
20671;SDS011;10495;50.922;4.760;2023-05-21T10:15:28;11.50;;;9.10;;
20671;SDS011;10495;50.922;4.760;2023-05-21T10:18:00;10.70;;;9.45;;
20671;SDS011;10495;50.922;4.760;2023-05-21T10:20:27;11.10;;;8.50;;
20671;SDS011;10495;50.922;4.760;2023-05-21T10:22:53;11.25;;;9.30;;
20671;SDS011;10495;50.922;4.760;2023-05-21T10:25:20;9.68;;;8.68;;
20671;SDS011;10495;50.922;4.760;2023-05-21T10:27:47;11.48;;;8.55;;
20671;SDS011;10495;50.922;4.760;2023-05-21T10:30:13;11.43;;;9.45;;
20671;SDS011;10495;50.922;4.760;2023-05-21T10:32:39;15.23;;;9.13;;
20671;SDS011;10495;50.922;4.760;2023-05-21T10:35:06;11.07;;;9.05;;
20671;SDS011;10495;50.922;4.760;2023-05-21T10:37:34;11.98;;;10.20;;
20671;SDS011;10495;50.922;4.760;2023-05-21T10:40:01;11.13;;;10.02;;
20671;SDS011;10495;50.922;4.760;2023-05-21T10:45:05;10.63;;;9.55;;
20671;SDS011;10495;50.922;4.760;2023-05-21T10:53:15;16.48;;;11.80;;
20671;SDS011;10495;50.922;4.760;2023-05-21T10:56:19;16.67;;;12.52;;
20671;SDS011;10495;50.922;4.760;2023-05-21T11:01:45;13.48;;;10.95;;
20671;SDS011;10495;50.922;4.760;2023-05-21T11:04:21;14.48;;;12.82;;
20671;SDS011;10495;50.922;4.760;2023-05-21T11:06:50;18.10;;;11.98;;
20671;SDS011;10495;50.922;4.760;2023-05-21T11:09:15;16.73;;;12.30;;
20671;SDS011;10495;50.922;4.760;2023-05-21T11:11:45;17.65;;;12.48;;
20671;SDS011;10495;50.922;4.760;2023-05-21T11:17:14;13.60;;;12.18;;
20671;SDS011;10495;50.922;4.760;2023-05-21T11:22:06;14.77;;;12.35;;
20671;SDS011;10495;50.922;4.760;2023-05-21T11:24:35;15.63;;;12.52;;
20671;SDS011;10495;50.922;4.760;2023-05-21T11:27:02;15.13;;;11.90;;
20671;SDS011;10495;50.922;4.760;2023-05-21T11:29:50;12.80;;;10.80;;
20671;SDS011;10495;50.922;4.760;2023-05-21T11:32:19;12.30;;;10.23;;
20671;SDS011;10495;50.922;4.760;2023-05-21T11:34:45;13.65;;;11.27;;
20671;SDS011;10495;50.922;4.760;2023-05-21T11:39:41;13.30;;;12.00;;
20671;SDS011;10495;50.922;4.760;2023-05-21T11:42:09;13.45;;;11.07;;
20671;SDS011;10495;50.922;4.760;2023-05-21T11:44:42;13.95;;;12.20;;
20671;SDS011;10495;50.922;4.760;2023-05-21T11:47:10;15.38;;;11.88;;
20671;SDS011;10495;50.922;4.760;2023-05-21T11:49:37;14.15;;;12.63;;
20671;SDS011;10495;50.922;4.760;2023-05-21T11:52:07;16.50;;;13.10;;
20671;SDS011;10495;50.922;4.760;2023-05-21T11:54:52;16.02;;;12.30;;
20671;SDS011;10495;50.922;4.760;2023-05-21T11:57:20;14.75;;;10.93;;
20671;SDS011;10495;50.922;4.760;2023-05-21T11:59:49;15.50;;;12.77;;
20671;SDS011;10495;50.922;4.760;2023-05-21T12:02:18;15.98;;;11.40;;
20671;SDS011;10495;50.922;4.760;2023-05-21T12:04:45;15.57;;;12.43;;
20671;SDS011;10495;50.922;4.760;2023-05-21T12:07:13;13.00;;;11.60;;
20671;SDS011;10495;50.922;4.760;2023-05-21T12:09:44;16.92;;;12.38;;
20671;SDS011;10495;50.922;4.760;2023-05-21T12:12:12;14.77;;;12.40;;
20671;SDS011;10495;50.922;4.760;2023-05-21T12:14:48;14.80;;;13.07;;
20671;SDS011;10495;50.922;4.760;2023-05-21T12:17:15;17.15;;;12.88;;
20671;SDS011;10495;50.922;4.760;2023-05-21T12:19:42;18.38;;;13.82;;
20671;SDS011;10495;50.922;4.760;2023-05-21T12:22:08;17.73;;;12.40;;
20671;SDS011;10495;50.922;4.760;2023-05-21T12:24:34;16.33;;;13.18;;
20671;SDS011;10495;50.922;4.760;2023-05-21T12:27:02;18.25;;;13.70;;
20671;SDS011;10495;50.922;4.760;2023-05-21T12:29:34;15.30;;;13.45;;
20671;SDS011;10495;50.922;4.760;2023-05-21T12:32:05;16.85;;;12.68;;
20671;SDS011;10495;50.922;4.760;2023-05-21T12:34:51;14.70;;;12.63;;
20671;SDS011;10495;50.922;4.760;2023-05-21T12:37:28;17.05;;;13.48;;
20671;SDS011;10495;50.922;4.760;2023-05-21T12:40:00;15.75;;;12.95;;
20671;SDS011;10495;50.922;4.760;2023-05-21T12:42:31;15.10;;;13.40;;
20671;SDS011;10495;50.922;4.760;2023-05-21T12:45:04;15.90;;;13.40;;
20671;SDS011;10495;50.922;4.760;2023-05-21T12:47:30;16.60;;;13.80;;
20671;SDS011;10495;50.922;4.760;2023-05-21T12:49:57;17.33;;;14.45;;
20671;SDS011;10495;50.922;4.760;2023-05-21T12:52:24;14.88;;;12.02;;
20671;SDS011;10495;50.922;4.760;2023-05-21T12:54:51;14.70;;;12.25;;
20671;SDS011;10495;50.922;4.760;2023-05-21T12:57:19;15.02;;;12.73;;
20671;SDS011;10495;50.922;4.760;2023-05-21T12:59:48;15.27;;;12.55;;
20671;SDS011;10495;50.922;4.760;2023-05-21T13:02:20;13.50;;;12.10;;
20671;SDS011;10495;50.922;4.760;2023-05-21T13:07:27;14.55;;;12.38;;
20671;SDS011;10495;50.922;4.760;2023-05-21T13:09:54;14.52;;;12.18;;
20671;SDS011;10495;50.922;4.760;2023-05-21T13:12:20;17.92;;;12.60;;
20671;SDS011;10495;50.922;4.760;2023-05-21T13:14:48;16.98;;;12.77;;
20671;SDS011;10495;50.922;4.760;2023-05-21T13:17:15;16.08;;;12.90;;
20671;SDS011;10495;50.922;4.760;2023-05-21T13:19:42;16.20;;;13.25;;
20671;SDS011;10495;50.922;4.760;2023-05-21T13:22:10;14.63;;;13.02;;
20671;SDS011;10495;50.922;4.760;2023-05-21T13:24:36;14.00;;;12.55;;
20671;SDS011;10495;50.922;4.760;2023-05-21T13:27:03;17.45;;;14.48;;
20671;SDS011;10495;50.922;4.760;2023-05-21T13:29:29;15.00;;;12.90;;
20671;SDS011;10495;50.922;4.760;2023-05-21T13:31:55;14.20;;;12.05;;
20671;SDS011;10495;50.922;4.760;2023-05-21T13:34:20;16.38;;;12.98;;
20671;SDS011;10495;50.922;4.760;2023-05-21T13:36:46;15.18;;;13.57;;
20671;SDS011;10495;50.922;4.760;2023-05-21T13:39:12;14.68;;;12.07;;
20671;SDS011;10495;50.922;4.760;2023-05-21T13:41:37;15.52;;;13.07;;
20671;SDS011;10495;50.922;4.760;2023-05-21T13:44:03;14.23;;;12.00;;
20671;SDS011;10495;50.922;4.760;2023-05-21T13:46:29;13.15;;;11.73;;
20671;SDS011;10495;50.922;4.760;2023-05-21T13:48:54;13.73;;;11.45;;
20671;SDS011;10495;50.922;4.760;2023-05-21T13:51:20;15.05;;;12.52;;
20671;SDS011;10495;50.922;4.760;2023-05-21T13:53:46;14.70;;;12.65;;
20671;SDS011;10495;50.922;4.760;2023-05-21T13:56:11;15.82;;;12.82;;
20671;SDS011;10495;50.922;4.760;2023-05-21T13:58:38;16.98;;;12.93;;
20671;SDS011;10495;50.922;4.760;2023-05-21T14:01:04;14.98;;;12.00;;
20671;SDS011;10495;50.922;4.760;2023-05-21T14:03:30;14.02;;;12.13;;
20671;SDS011;10495;50.922;4.760;2023-05-21T14:05:55;14.52;;;11.95;;
20671;SDS011;10495;50.922;4.760;2023-05-21T14:08:21;15.77;;;12.65;;
20671;SDS011;10495;50.922;4.760;2023-05-21T14:10:48;16.80;;;14.32;;
20671;SDS011;10495;50.922;4.760;2023-05-21T14:13:14;15.00;;;13.50;;
20671;SDS011;10495;50.922;4.760;2023-05-21T14:15:41;17.60;;;13.70;;
20671;SDS011;10495;50.922;4.760;2023-05-21T14:18:06;18.25;;;12.88;;
20671;SDS011;10495;50.922;4.760;2023-05-21T14:20:36;14.32;;;12.82;;
20671;SDS011;10495;50.922;4.760;2023-05-21T14:23:06;17.20;;;13.38;;
20671;SDS011;10495;50.922;4.760;2023-05-21T14:25:33;12.82;;;11.35;;
20671;SDS011;10495;50.922;4.760;2023-05-21T14:27:58;16.13;;;13.63;;
20671;SDS011;10495;50.922;4.760;2023-05-21T14:30:25;19.88;;;11.75;;
20671;SDS011;10495;50.922;4.760;2023-05-21T14:32:50;17.20;;;12.60;;
20671;SDS011;10495;50.922;4.760;2023-05-21T14:35:16;14.80;;;12.57;;
20671;SDS011;10495;50.922;4.760;2023-05-21T14:37:41;17.67;;;11.93;;
20671;SDS011;10495;50.922;4.760;2023-05-21T14:40:07;15.85;;;11.95;;
20671;SDS011;10495;50.922;4.760;2023-05-21T14:42:34;13.25;;;11.85;;
20671;SDS011;10495;50.922;4.760;2023-05-21T14:44:59;12.95;;;11.40;;
20671;SDS011;10495;50.922;4.760;2023-05-21T14:47:25;13.73;;;11.93;;
20671;SDS011;10495;50.922;4.760;2023-05-21T14:49:50;12.98;;;11.68;;
20671;SDS011;10495;50.922;4.760;2023-05-21T14:52:16;15.60;;;13.05;;
20671;SDS011;10495;50.922;4.760;2023-05-21T14:54:42;15.73;;;12.32;;
20671;SDS011;10495;50.922;4.760;2023-05-21T14:57:07;16.13;;;13.05;;
20671;SDS011;10495;50.922;4.760;2023-05-21T14:59:33;14.15;;;12.65;;
20671;SDS011;10495;50.922;4.760;2023-05-21T15:01:58;14.07;;;12.55;;